Brooklet, Georgia
Current Conditions -  °F | °C
As of 6:55 AM on Monday 22 Dec 2014 (Local Time) from KTBR Reporting Station
Overcast Overcast  
Wind Chill: 47°   Ceiling: 500
Heat Index: 47°   Visibility: 7mi
Dew Point: 47°   Wind: 3mph
Humidity: 100%   Direction: 40°NE
Pressure: 30.05"   Gusts: NA
Location:  32.38°N, 81.66°W
Report Text: KTBR 221155Z AUTO 04003KT 7SM OVC005 08/08 A3005 RMK AO2 T00810081 10085 20079
Loading
Personal Weather Stations






























Interactive Weather Map New forecast layout! Learn more

10-Day Weather Forecast

Advertisements
Track Severe Weather on mobile